Time;durP1;ratioP1;P1;durP2;ratioP2;P2;SDS_P1;SDS_P2;PMS_P1;PMS_P2;Temp;Humidity;BMP_temperature;BMP_pressure;BME280_temperature;BME280_humidity;BME280_pressure;Samples;Min_cycle;Max_cycle;Signal;HPM_P1;HPM_P2
2023/01/18 00:19:44;;;;;;;2.28;0.85;;;0.80;99.90;;;;;;5382373;24;20052;-79
2023/01/18 01:09:03;;;;;;;5.97;2.00;;;0.70;99.90;;;;;;4707071;24;20060;-79
2023/01/18 01:11:35;;;;;;;5.40;2.40;;;0.70;99.90;;;;;;4738659;30;20055;-78
2023/01/18 02:24:02;;;;;;;7.65;3.10;;;0.20;99.90;;;;;;4752070;30;20064;-79
2023/01/18 02:26:49;;;;;;;9.52;3.22;;;0.20;99.90;;;;;;4737705;30;20060;-79
2023/01/18 02:29:51;;;;;;;8.85;2.65;;;0.10;99.90;;;;;;4753906;30;20052;-79
2023/01/18 02:32:24;;;;;;;6.97;3.38;;;0.20;99.90;;;;;;4753705;30;20055;-79
2023/01/18 02:35:12;;;;;;;10.90;2.65;;;0.20;99.90;;;;;;4737758;30;20139;-79
2023/01/18 02:37:38;;;;;;;8.82;3.58;;;0.20;99.90;;;;;;4753643;30;20102;-79
2023/01/18 02:40:18;;;;;;;6.53;2.58;;;0.20;99.90;;;;;;4753587;30;20466;-79
2023/01/18 03:08:45;;;;;;;5.13;2.47;;;0.30;99.90;;;;;;4984603;24;20044;-79
2023/01/18 03:11:44;;;;;;;9.57;2.97;;;0.10;99.90;;;;;;4753252;30;20060;-79
2023/01/18 03:14:49;;;;;;;7.90;2.97;;;0.20;99.90;;;;;;4753102;30;20157;-79
2023/01/18 03:17:29;;;;;;;8.93;3.30;;;0.00;99.90;;;;;;4752945;30;20052;-79
2023/01/18 03:25:41;;;;;;;6.78;2.78;;;0.20;99.90;;;;;;4752681;30;20044;-79
2023/01/18 03:42:59;;;;;;;7.78;3.42;;;0.20;99.90;;;;;;5184047;24;20068;-79
2023/01/18 03:45:54;;;;;;;7.45;3.22;;;0.10;99.90;;;;;;4736930;30;20060;-79
2023/01/18 03:48:37;;;;;;;7.53;3.67;;;0.20;99.90;;;;;;4745850;30;20059;-79
2023/01/18 05:56:22;;;;;;;18.23;8.45;;;0.40;99.90;;;;;;5521919;24;20059;-79
2023/01/18 05:58:48;;;;;;;18.42;7.38;;;0.50;99.90;;;;;;4736317;30;20112;-79
2023/01/18 06:12:16;;;;;;;19.15;9.25;;;0.40;99.90;;;;;;4853711;24;20055;-79
2023/01/18 06:22:01;;;;;;;17.20;8.75;;;0.50;99.90;;;;;;4759961;24;20071;-79
2023/01/18 06:24:26;;;;;;;20.23;8.95;;;0.70;99.90;;;;;;4753888;30;20056;-80
2023/01/18 06:26:59;;;;;;;13.65;7.38;;;0.50;99.90;;;;;;4753395;30;20044;-80
2023/01/18 06:29:27;;;;;;;18.23;7.53;;;0.70;99.90;;;;;;4753354;30;20131;-80
2023/01/18 06:31:56;;;;;;;20.45;8.52;;;0.70;99.90;;;;;;4753544;30;20052;-79
2023/01/18 06:35:19;;;;;;;15.55;7.95;;;0.60;99.90;;;;;;4737530;30;20052;-80
2023/01/18 06:42:50;;;;;;;19.48;6.93;;;0.70;99.90;;;;;;4751958;30;20621;-79
2023/01/18 06:53:04;;;;;;;24.38;7.55;;;0.60;99.90;;;;;;4716310;30;20111;-79
2023/01/18 06:55:57;;;;;;;15.57;5.95;;;0.50;99.90;;;;;;4752599;30;20071;-79
2023/01/18 06:59:19;;;;;;;20.00;7.32;;;0.60;99.90;;;;;;4752848;30;20048;-79
2023/01/18 07:01:44;;;;;;;15.88;6.35;;;0.60;99.90;;;;;;5031673;24;20147;-78
2023/01/18 07:04:11;;;;;;;14.30;6.25;;;0.60;99.90;;;;;;4753154;30;20468;-79
2023/01/18 07:06:37;;;;;;;25.50;6.70;;;0.50;99.90;;;;;;4753268;30;20044;-79
2023/01/18 07:09:19;;;;;;;16.10;7.43;;;0.50;99.90;;;;;;4751388;30;20067;-79
2023/01/18 07:11:48;;;;;;;15.00;6.07;;;0.60;99.90;;;;;;4737476;30;20121;-79
2023/01/18 07:14:13;;;;;;;26.42;6.85;;;0.50;99.90;;;;;;4737183;30;20052;-79
2023/01/18 07:16:42;;;;;;;14.93;6.32;;;0.50;99.90;;;;;;4752724;30;20052;-79
2023/01/18 07:19:11;;;;;;;22.95;6.13;;;0.50;99.90;;;;;;4753108;30;20106;-79
2023/01/18 07:40:28;;;;;;;16.10;7.07;;;0.70;99.90;;;;;;5278525;24;20056;-79
2023/01/18 07:56:38;;;;;;;14.60;6.75;;;0.40;99.90;;;;;;4752487;30;20070;-79
2023/01/18 07:59:09;;;;;;;16.88;7.93;;;0.40;99.90;;;;;;4752659;30;20123;-80
2023/01/18 08:02:03;;;;;;;18.42;8.23;;;0.40;99.90;;;;;;4752325;30;20048;-79
2023/01/18 08:07:56;;;;;;;17.17;8.38;;;0.40;99.90;;;;;;4974454;24;20161;-79
2023/01/18 08:29:24;;;;;;;27.88;10.85;;;0.70;99.90;;;;;;4700848;30;20144;-81
2023/01/18 08:34:25;;;;;;;22.33;10.57;;;0.70;99.90;;;;;;4907629;24;20060;-78
2023/01/18 08:36:51;;;;;;;22.27;10.30;;;0.70;99.90;;;;;;4739304;30;20111;-78
2023/01/18 08:39:17;;;;;;;24.25;10.82;;;0.80;99.90;;;;;;4739200;30;20048;-81
2023/01/18 08:41:42;;;;;;;21.52;10.07;;;0.90;99.90;;;;;;4754790;30;20100;-80
2023/01/18 08:44:08;;;;;;;20.70;10.73;;;0.90;99.90;;;;;;4739421;30;20405;-80
2023/01/18 08:48:59;;;;;;;20.92;10.18;;;1.00;99.90;;;;;;4759168;24;20087;-79
2023/01/18 08:51:25;;;;;;;18.55;9.32;;;1.00;99.90;;;;;;4753489;30;20052;-78
2023/01/18 08:53:57;;;;;;;23.65;11.93;;;1.10;99.90;;;;;;4754054;30;20059;-78
2023/01/18 08:56:25;;;;;;;27.40;12.18;;;1.20;99.90;;;;;;4754979;30;20127;-78
2023/01/18 08:58:51;;;;;;;20.63;10.25;;;1.20;99.90;;;;;;4755134;30;20063;-78
2023/01/18 09:01:17;;;;;;;22.80;10.55;;;1.40;99.90;;;;;;4752542;30;20056;-80
2023/01/18 09:03:43;;;;;;;23.30;10.38;;;1.30;99.90;;;;;;4754584;30;20052;-80
2023/01/18 09:06:09;;;;;;;23.33;10.95;;;1.40;99.90;;;;;;4754999;30;20060;-81
2023/01/18 09:08:37;;;;;;;25.13;11.10;;;1.40;99.90;;;;;;4755092;30;20060;-81
2023/01/18 09:11:06;;;;;;;21.48;10.43;;;1.50;99.90;;;;;;4754868;30;20044;-81
2023/01/18 09:13:32;;;;;;;24.17;10.88;;;1.60;99.90;;;;;;4754596;30;20060;-81
2023/01/18 09:15:59;;;;;;;24.77;9.90;;;1.60;99.90;;;;;;4936789;24;20048;-81
2023/01/18 09:18:25;;;;;;;16.88;8.75;;;1.80;99.90;;;;;;4754620;30;20474;-81
2023/01/18 09:20:53;;;;;;;15.60;8.40;;;1.80;99.90;;;;;;4738596;30;20580;-80
2023/01/18 09:33:51;;;;;;;20.27;9.20;;;2.20;99.90;;;;;;4738367;30;20066;-80
2023/01/18 09:36:36;;;;;;;23.27;8.57;;;2.30;99.90;;;;;;4705449;30;20102;-78
2023/01/18 09:39:11;;;;;;;14.35;8.05;;;2.40;99.90;;;;;;4728145;30;20056;-81
2023/01/18 09:41:43;;;;;;;19.75;9.02;;;2.40;99.90;;;;;;4737458;30;20071;-80
2023/01/18 09:44:16;;;;;;;19.73;7.95;;;2.50;99.90;;;;;;4738078;30;20664;-80
2023/01/18 09:46:51;;;;;;;17.45;7.65;;;2.60;99.90;;;;;;4754215;30;20083;-81
2023/01/18 09:49:36;;;;;;;21.73;8.10;;;2.70;99.90;;;;;;4754193;30;20056;-80
2023/01/18 09:52:26;;;;;;;14.93;7.63;;;2.80;99.90;;;;;;4738208;30;20087;-80
2023/01/18 09:55:00;;;;;;;20.27;7.93;;;2.90;99.90;;;;;;4754170;30;20106;-80
2023/01/18 09:57:51;;;;;;;14.52;7.18;;;2.90;99.90;;;;;;4754175;30;20052;-80
2023/01/18 10:05:38;;;;;;;18.67;8.38;;;3.10;99.90;;;;;;4948276;24;20052;-80
2023/01/18 10:08:19;;;;;;;18.08;8.48;;;3.20;99.90;;;;;;4767404;30;20421;-80
2023/01/18 10:10:52;;;;;;;15.63;8.23;;;3.30;99.90;;;;;;4737717;30;20063;-80
2023/01/18 10:13:36;;;;;;;14.75;7.20;;;3.40;99.90;;;;;;4752420;30;20056;-80
2023/01/18 10:16:13;;;;;;;17.45;8.43;;;3.40;99.90;;;;;;4737585;30;20056;-80
2023/01/18 10:18:44;;;;;;;17.73;8.02;;;3.50;99.90;;;;;;4753677;30;20485;-80
2023/01/18 10:21:21;;;;;;;16.92;7.88;;;3.50;99.90;;;;;;4737808;30;20063;-80
2023/01/18 10:24:00;;;;;;;15.57;8.73;;;3.60;99.90;;;;;;4753493;30;20498;-80
2023/01/18 10:26:29;;;;;;;18.15;8.52;;;3.50;99.90;;;;;;4752431;30;20048;-80
2023/01/18 10:29:11;;;;;;;18.08;8.18;;;3.60;99.90;;;;;;4752223;30;20045;-80
2023/01/18 10:31:54;;;;;;;19.50;7.68;;;3.80;99.90;;;;;;4752194;30;20056;-80
2023/01/18 10:34:22;;;;;;;16.27;7.63;;;3.80;99.90;;;;;;4751876;30;20127;-79
2023/01/18 10:36:55;;;;;;;19.35;7.00;;;3.90;99.90;;;;;;4751949;30;20067;-80
2023/01/18 10:39:45;;;;;;;15.18;7.45;;;3.90;99.90;;;;;;4750599;30;20414;-80
2023/01/18 10:42:27;;;;;;;13.57;7.32;;;3.90;99.90;;;;;;4753394;30;20048;-79
2023/01/18 10:44:53;;;;;;;16.92;7.13;;;3.90;99.90;;;;;;4753046;30;20113;-79
2023/01/18 10:47:19;;;;;;;15.60;6.55;;;4.00;99.90;;;;;;4945338;24;20056;-80
2023/01/18 10:50:41;;;;;;;13.68;6.22;;;4.10;99.90;;;;;;4752063;30;20060;-80
2023/01/18 10:53:36;;;;;;;12.48;6.13;;;4.20;99.90;;;;;;4737777;30;20054;-80
2023/01/18 10:56:24;;;;;;;16.48;7.35;;;4.20;99.90;;;;;;4751748;30;20669;-80
2023/01/18 10:58:50;;;;;;;15.77;7.15;;;4.20;99.90;;;;;;4737290;30;20052;-80
2023/01/18 11:01:48;;;;;;;14.38;7.40;;;4.20;99.90;;;;;;4751784;30;20060;-79
2023/01/18 11:04:27;;;;;;;14.77;6.80;;;4.20;99.90;;;;;;4752028;30;20507;-79
2023/01/18 11:07:03;;;;;;;15.27;7.07;;;4.20;99.90;;;;;;4743120;30;20048;-79
2023/01/18 11:09:38;;;;;;;12.52;6.90;;;4.20;99.90;;;;;;4744459;30;20079;-78
2023/01/18 11:12:43;;;;;;;14.90;6.82;;;4.30;99.90;;;;;;4742834;30;20044;-79
2023/01/18 11:15:17;;;;;;;16.45;6.53;;;4.30;99.90;;;;;;4735507;30;20063;-79
2023/01/18 11:20:42;;;;;;;13.98;6.32;;;4.30;99.90;;;;;;4849644;24;20060;-73
2023/01/18 11:32:09;;;;;;;15.35;6.72;;;4.50;99.90;;;;;;5629237;24;20020;-73
2023/01/18 11:34:38;;;;;;;14.05;7.03;;;4.50;99.90;;;;;;4736499;30;20052;-73
2023/01/18 11:45:34;;;;;;;15.68;6.88;;;4.80;99.90;;;;;;5092005;24;20056;-72
2023/01/18 11:51:07;;;;;;;17.40;7.05;;;4.70;99.90;;;;;;4821930;24;20520;-72
2023/01/18 11:53:59;;;;;;;12.43;6.78;;;4.70;99.90;;;;;;4737678;30;20428;-72
2023/01/18 11:56:44;;;;;;;16.98;6.75;;;4.80;99.90;;;;;;4724634;30;20056;-71
2023/01/18 11:59:34;;;;;;;15.85;6.75;;;4.80;99.90;;;;;;4735377;30;20056;-71
2023/01/18 12:02:29;;;;;;;14.38;6.63;;;4.80;99.90;;;;;;4731957;30;20056;-72
2023/01/18 12:05:24;;;;;;;17.10;6.93;;;4.70;99.90;;;;;;4741617;30;20385;-72
2023/01/18 12:08:09;;;;;;;14.45;6.85;;;4.80;99.90;;;;;;4742232;30;20048;-72
2023/01/18 12:11:19;;;;;;;14.02;7.00;;;4.60;99.90;;;;;;4742261;30;20105;-72
2023/01/18 12:13:59;;;;;;;13.98;7.25;;;4.40;99.90;;;;;;4741879;30;20143;-72
2023/01/18 12:22:01;;;;;;;15.02;5.95;;;4.60;99.90;;;;;;4777587;24;20815;-72
2023/01/18 12:24:59;;;;;;;16.95;6.75;;;4.70;99.90;;;;;;4735335;30;20052;-72
2023/01/18 12:27:52;;;;;;;12.00;6.20;;;4.80;99.90;;;;;;4728379;30;20497;-72
2023/01/18 12:30:26;;;;;;;13.13;6.55;;;4.70;99.90;;;;;;4756712;30;20149;-72
2023/01/18 12:33:11;;;;;;;14.82;6.35;;;4.60;99.90;;;;;;4756707;30;20056;-72
2023/01/18 12:35:49;;;;;;;11.73;5.80;;;4.60;99.90;;;;;;4741465;30;20066;-72
2023/01/18 12:38:30;;;;;;;11.32;6.30;;;4.50;99.90;;;;;;4756216;30;20059;-72
2023/01/18 13:07:21;;;;;;;15.23;6.43;;;4.20;99.90;;;;;;5756814;24;20020;-72
2023/01/18 13:09:49;;;;;;;21.13;7.07;;;4.20;99.90;;;;;;4716133;30;20430;-72
2023/01/18 13:26:30;;;;;;;12.98;5.63;;;4.10;99.90;;;;;;4645727;28;20433;-72
2023/01/18 13:29:18;;;;;;;15.38;5.88;;;4.10;99.90;;;;;;4753396;30;20056;-72
2023/01/18 13:31:48;;;;;;;13.07;5.78;;;4.10;99.90;;;;;;4738607;30;20056;-72
2023/01/18 13:34:35;;;;;;;10.85;5.72;;;4.10;99.90;;;;;;4753636;30;20052;-72
2023/01/18 13:37:41;;;;;;;16.83;5.75;;;4.10;99.90;;;;;;4753243;30;20493;-73
2023/01/18 13:40:28;;;;;;;19.05;6.43;;;4.10;99.90;;;;;;4738809;30;20076;-72
2023/01/18 13:42:53;;;;;;;14.25;5.90;;;4.10;99.90;;;;;;4738526;30;20071;-72
2023/01/18 13:53:11;;;;;;;12.27;6.20;;;4.10;99.90;;;;;;2889182;24;20060;-73
2023/01/18 13:56:39;;;;;;;12.15;5.57;;;4.10;99.90;;;;;;4754283;30;20107;-72
2023/01/18 13:59:32;;;;;;;12.98;5.45;;;4.10;99.90;;;;;;4724799;30;20052;-71
2023/01/18 14:02:20;;;;;;;10.38;3.90;;;4.10;99.90;;;;;;4738076;30;20063;-72
2023/01/18 14:05:30;;;;;;;13.05;4.78;;;4.20;99.90;;;;;;4753830;30;20048;-73
2023/01/18 14:07:59;;;;;;;15.80;7.88;;;4.20;99.90;;;;;;4733332;30;20525;-73
2023/01/18 14:10:26;;;;;;;12.45;4.72;;;4.20;99.90;;;;;;4737774;30;20405;-74
2023/01/18 14:12:56;;;;;;;10.35;3.25;;;4.30;99.90;;;;;;4737820;30;20056;-73
2023/01/18 14:15:29;;;;;;;8.75;3.65;;;4.20;99.90;;;;;;4737710;30;20131;-73
2023/01/18 14:18:31;;;;;;;11.33;3.67;;;4.30;99.90;;;;;;4738355;30;20062;-72
2023/01/18 14:21:22;;;;;;;11.97;3.30;;;4.30;99.90;;;;;;4702485;30;20064;-73
2023/01/18 14:23:57;;;;;;;8.95;3.58;;;4.30;99.90;;;;;;4730896;30;20408;-73
2023/01/18 14:26:31;;;;;;;8.95;3.60;;;4.30;99.90;;;;;;4738021;30;20052;-73
2023/01/18 14:29:21;;;;;;;10.10;3.70;;;4.30;99.90;;;;;;4737689;30;20109;-72
2023/01/18 14:36:57;;;;;;;6.93;2.60;;;4.30;99.90;;;;;;5543870;24;20585;-72
2023/01/18 15:02:37;;;;;;;7.22;1.73;;;3.80;99.90;;;;;;3059008;24;20470;-73
2023/01/18 15:05:18;;;;;;;6.30;1.85;;;3.80;99.90;;;;;;4751888;30;20056;-73
2023/01/18 15:07:48;;;;;;;9.15;2.20;;;3.80;99.90;;;;;;4751814;30;20500;-73
2023/01/18 15:24:43;;;;;;;6.60;2.08;;;3.60;99.90;;;;;;4752513;30;20083;-73
2023/01/18 15:27:19;;;;;;;5.72;2.20;;;3.60;99.90;;;;;;4751185;30;20496;-73
2023/01/18 15:34:57;;;;;;;8.95;2.40;;;3.50;99.90;;;;;;4855078;24;20059;-73
2023/01/18 15:38:27;;;;;;;6.63;2.10;;;3.40;99.90;;;;;;4831942;24;20506;-73
2023/01/18 15:41:36;;;;;;;9.63;1.95;;;3.50;99.90;;;;;;4754325;30;20071;-73
2023/01/18 15:49:29;;;;;;;6.18;1.90;;;3.20;99.90;;;;;;4826906;24;20539;-73
2023/01/18 15:56:02;;;;;;;6.53;1.70;;;3.00;99.90;;;;;;4751325;30;20056;-73
2023/01/18 15:58:57;;;;;;;6.38;1.67;;;2.80;99.90;;;;;;4751456;30;20067;-73
2023/01/18 16:01:34;;;;;;;4.80;1.20;;;2.70;99.90;;;;;;4751506;30;20056;-73
2023/01/18 16:04:16;;;;;;;5.85;1.25;;;2.90;99.90;;;;;;4751590;30;20064;-73
2023/01/18 16:06:44;;;;;;;5.70;1.50;;;2.90;99.90;;;;;;4751341;30;20060;-73
2023/01/18 16:09:14;;;;;;;5.28;1.52;;;2.90;99.90;;;;;;4751081;30;20398;-73
2023/01/18 16:11:55;;;;;;;6.63;1.23;;;2.90;99.90;;;;;;4751346;30;20135;-74
2023/01/18 16:14:21;;;;;;;4.90;1.38;;;3.00;99.90;;;;;;4751236;30;20063;-74
2023/01/18 16:16:51;;;;;;;8.13;1.33;;;3.10;99.90;;;;;;4751170;30;20056;-74
2023/01/18 16:19:17;;;;;;;5.90;1.20;;;2.90;99.90;;;;;;4751227;30;20056;-73
2023/01/18 16:21:50;;;;;;;5.30;2.47;;;3.10;99.90;;;;;;4751267;30;20059;-74
2023/01/18 16:24:41;;;;;;;6.88;2.42;;;3.00;99.90;;;;;;4751524;30;20092;-73
2023/01/18 16:27:13;;;;;;;4.95;2.08;;;3.00;99.90;;;;;;4751242;30;20083;-73
2023/01/18 16:32:32;;;;;;;6.80;2.75;;;3.00;99.90;;;;;;5204213;24;20071;-73
2023/01/18 16:35:28;;;;;;;8.13;1.83;;;3.10;99.90;;;;;;4738596;30;20108;-73
2023/01/18 16:38:02;;;;;;;4.78;1.60;;;3.10;99.90;;;;;;4739881;30;20052;-73
2023/01/18 16:40:28;;;;;;;7.68;2.28;;;3.00;99.90;;;;;;4739748;30;20064;-73
2023/01/18 16:43:01;;;;;;;7.03;1.98;;;2.80;99.90;;;;;;4739766;30;20515;-73
2023/01/18 16:45:34;;;;;;;6.45;2.10;;;2.80;99.90;;;;;;4739388;30;20130;-74
2023/01/18 16:47:59;;;;;;;7.20;1.90;;;2.70;99.90;;;;;;4739726;30;20091;-73
2023/01/18 16:50:28;;;;;;;7.65;1.58;;;2.70;99.90;;;;;;4739621;30;20137;-74
2023/01/18 16:52:57;;;;;;;7.30;1.95;;;2.80;99.90;;;;;;4739482;30;20505;-73
2023/01/18 16:55:26;;;;;;;7.15;1.80;;;2.70;99.90;;;;;;4739488;30;20052;-75
2023/01/18 16:57:52;;;;;;;7.07;2.50;;;2.80;99.90;;;;;;4739830;30;20076;-73
2023/01/18 17:00:32;;;;;;;4.80;1.80;;;2.70;99.90;;;;;;4739554;30;20453;-74
2023/01/18 17:03:07;;;;;;;8.18;2.30;;;2.90;99.90;;;;;;4755390;30;20052;-73
2023/01/18 17:05:33;;;;;;;4.18;1.45;;;2.80;99.90;;;;;;4739768;30;20055;-73
2023/01/18 17:08:00;;;;;;;10.95;1.80;;;2.80;99.90;;;;;;4739915;30;20463;-73
2023/01/18 17:10:38;;;;;;;12.10;1.98;;;2.80;99.90;;;;;;4755458;30;20179;-73
2023/01/18 17:13:04;;;;;;;5.57;2.13;;;2.90;99.90;;;;;;4739550;30;20060;-74
2023/01/18 17:15:33;;;;;;;5.22;2.35;;;2.80;99.90;;;;;;4755007;30;20052;-73
2023/01/18 17:18:02;;;;;;;8.80;2.25;;;2.80;99.90;;;;;;4755088;30;20097;-73
2023/01/18 17:20:33;;;;;;;13.60;3.47;;;2.90;99.90;;;;;;4739178;30;20062;-73
2023/01/18 17:23:02;;;;;;;6.10;2.42;;;2.70;99.90;;;;;;4738885;30;20059;-73
2023/01/18 17:25:28;;;;;;;9.52;2.20;;;2.80;99.90;;;;;;4739074;30;20127;-73
2023/01/18 17:27:55;;;;;;;9.82;2.13;;;2.60;99.90;;;;;;5107128;24;20097;-73
2023/01/18 17:30:24;;;;;;;6.93;2.60;;;2.70;99.90;;;;;;4721031;30;20135;-73
2023/01/18 17:32:50;;;;;;;6.45;2.53;;;2.70;99.90;;;;;;4721361;30;20053;-72
2023/01/18 17:35:18;;;;;;;5.95;2.08;;;2.60;99.90;;;;;;4721637;30;20056;-73
2023/01/18 17:37:44;;;;;;;8.38;2.90;;;2.60;99.90;;;;;;4721333;30;20063;-73
2023/01/18 17:40:10;;;;;;;6.65;3.58;;;2.70;99.90;;;;;;4721360;30;20120;-73
2023/01/18 17:45:13;;;;;;;12.32;3.83;;;2.80;99.90;;;;;;4752797;28;20068;-73
2023/01/18 17:47:40;;;;;;;13.73;4.25;;;2.90;99.90;;;;;;4738568;30;20055;-73
2023/01/18 17:50:10;;;;;;;11.60;4.15;;;3.00;99.90;;;;;;4738834;30;20060;-73
2023/01/18 17:52:37;;;;;;;7.95;3.00;;;3.00;99.90;;;;;;4738701;30;20060;-73
2023/01/18 17:55:09;;;;;;;12.20;3.13;;;3.10;99.90;;;;;;4738642;30;20056;-73
2023/01/18 18:00:20;;;;;;;13.13;3.13;;;3.10;99.90;;;;;;4806783;24;20060;-73
2023/01/18 18:02:49;;;;;;;13.60;2.63;;;3.00;99.90;;;;;;4756129;30;20056;-73
2023/01/18 18:05:14;;;;;;;10.02;2.13;;;3.00;99.90;;;;;;4755953;30;20109;-73
2023/01/18 18:07:40;;;;;;;7.40;2.03;;;3.10;99.90;;;;;;4772411;30;20051;-73
2023/01/18 18:10:07;;;;;;;6.25;1.55;;;3.20;99.90;;;;;;4756007;30;20075;-73
2023/01/18 18:12:33;;;;;;;5.70;1.85;;;3.10;99.90;;;;;;4756135;30;20389;-73
2023/01/18 18:15:09;;;;;;;8.88;2.38;;;3.20;99.90;;;;;;5052902;24;20142;-73
2023/01/18 18:17:43;;;;;;;7.30;1.60;;;3.00;99.90;;;;;;4752861;30;20119;-73
2023/01/18 18:20:16;;;;;;;6.18;1.35;;;3.00;99.90;;;;;;4752729;30;20048;-73
2023/01/18 18:22:41;;;;;;;6.45;1.55;;;3.10;99.90;;;;;;4752752;30;20060;-73
2023/01/18 18:25:28;;;;;;;5.57;1.98;;;3.20;99.90;;;;;;5001573;24;20055;-73
2023/01/18 18:27:56;;;;;;;5.78;1.52;;;3.10;99.90;;;;;;4755354;30;20059;-73
2023/01/18 18:30:24;;;;;;;12.18;1.67;;;3.10;99.90;;;;;;4755745;30;20091;-73
2023/01/18 18:32:50;;;;;;;9.23;2.33;;;3.20;99.90;;;;;;4755573;30;20160;-73
2023/01/18 18:35:19;;;;;;;6.10;1.23;;;3.10;99.90;;;;;;4755588;30;20063;-73
2023/01/18 18:37:47;;;;;;;8.02;1.30;;;3.20;99.90;;;;;;4755775;30;20052;-73
2023/01/18 18:40:13;;;;;;;7.05;1.75;;;3.10;99.90;;;;;;4755643;30;20400;-73
2023/01/18 18:42:41;;;;;;;6.38;1.23;;;3.00;99.90;;;;;;4755291;30;20078;-73
2023/01/18 18:45:10;;;;;;;4.75;2.00;;;3.00;99.90;;;;;;4755192;30;20059;-73
2023/01/18 18:47:37;;;;;;;10.93;1.67;;;3.20;99.90;;;;;;4755687;30;20059;-73
2023/01/18 18:50:12;;;;;;;9.70;2.03;;;3.00;99.90;;;;;;4755603;30;20063;-72
2023/01/18 18:52:38;;;;;;;6.45;1.60;;;3.10;99.90;;;;;;4755436;30;20056;-72
2023/01/18 18:55:07;;;;;;;9.60;1.63;;;3.10;99.90;;;;;;4755360;30;20138;-73
2023/01/18 18:57:36;;;;;;;8.20;1.73;;;3.10;99.90;;;;;;4770372;30;20120;-73
2023/01/18 19:00:06;;;;;;;9.35;1.65;;;3.20;99.90;;;;;;4755522;30;20060;-73
2023/01/18 19:02:32;;;;;;;8.77;1.20;;;3.20;99.90;;;;;;4755271;30;20105;-73
2023/01/18 19:05:01;;;;;;;9.15;1.55;;;3.30;99.90;;;;;;4755178;30;20381;-73
2023/01/18 19:07:36;;;;;;;12.30;1.88;;;3.10;99.90;;;;;;4773371;24;20071;-73
2023/01/18 19:10:04;;;;;;;14.85;1.75;;;3.10;99.90;;;;;;4736830;30;20484;-74
2023/01/18 19:12:30;;;;;;;5.82;1.42;;;3.10;99.90;;;;;;4737396;30;20060;-73
2023/01/18 19:14:57;;;;;;;7.70;1.10;;;3.10;99.90;;;;;;4737202;30;20060;-73
2023/01/18 19:19:50;;;;;;;9.23;1.70;;;3.20;99.90;;;;;;4751816;30;20055;-73
2023/01/18 19:22:16;;;;;;;11.85;1.77;;;3.30;99.90;;;;;;4737389;30;20064;-73
2023/01/18 19:24:41;;;;;;;9.15;1.83;;;3.30;99.90;;;;;;4737147;30;20504;-73
2023/01/18 19:29:54;;;;;;;17.65;2.00;;;3.30;99.90;;;;;;4890927;24;20056;-73
2023/01/18 19:32:51;;;;;;;13.85;2.90;;;3.40;99.90;;;;;;4735135;30;20452;-73
2023/01/18 19:38:46;;;;;;;13.23;2.00;;;3.30;99.90;;;;;;4733730;30;20567;-73
2023/01/18 19:41:14;;;;;;;14.60;1.80;;;3.20;99.90;;;;;;4718540;30;20059;-73
2023/01/18 19:43:43;;;;;;;12.90;1.48;;;3.30;99.90;;;;;;4737014;30;20056;-73
2023/01/18 19:46:11;;;;;;;12.00;1.73;;;3.30;99.90;;;;;;4754760;30;20060;-73
2023/01/18 19:51:14;;;;;;;10.65;1.60;;;3.40;99.90;;;;;;4774705;24;20060;-73
2023/01/18 19:53:40;;;;;;;13.82;2.00;;;3.30;99.90;;;;;;4754471;30;20064;-73
2023/01/18 19:56:09;;;;;;;13.30;1.50;;;3.40;99.90;;;;;;4754374;30;20415;-73
2023/01/18 19:58:40;;;;;;;14.70;1.80;;;3.50;99.90;;;;;;4754737;30;20066;-73
2023/01/18 20:01:16;;;;;;;9.10;1.67;;;3.30;99.90;;;;;;4770546;30;20516;-73
2023/01/18 20:03:45;;;;;;;20.17;2.70;;;3.30;99.90;;;;;;4754486;30;20051;-73
2023/01/18 20:06:18;;;;;;;13.68;2.28;;;3.40;99.90;;;;;;4754339;30;20070;-73
2023/01/18 20:08:44;;;;;;;15.77;3.38;;;3.30;99.90;;;;;;4754740;30;20105;-73
2023/01/18 20:11:13;;;;;;;13.52;1.67;;;3.30;99.90;;;;;;4758083;30;20054;-73
2023/01/18 20:13:52;;;;;;;13.38;1.77;;;3.20;99.90;;;;;;4758238;30;20044;-73
2023/01/18 20:16:24;;;;;;;12.68;1.70;;;3.40;99.90;;;;;;4757791;30;20497;-73
2023/01/18 20:18:49;;;;;;;14.13;1.88;;;3.30;99.90;;;;;;4757853;30;20500;-73
2023/01/18 20:21:17;;;;;;;14.68;1.52;;;3.40;99.90;;;;;;4758045;30;20054;-73
2023/01/18 20:23:44;;;;;;;16.10;2.42;;;3.30;99.90;;;;;;4757629;30;20052;-73
2023/01/18 20:26:11;;;;;;;6.60;1.38;;;3.20;99.90;;;;;;4757765;30;20047;-73
2023/01/18 20:34:43;;;;;;;15.57;2.00;;;3.20;99.90;;;;;;4757393;30;20055;-73
2023/01/18 20:37:15;;;;;;;17.33;2.35;;;3.20;99.90;;;;;;4757283;30;20043;-73
2023/01/18 20:39:43;;;;;;;10.65;2.13;;;3.40;99.90;;;;;;4757685;30;20056;-73
2023/01/18 20:42:09;;;;;;;13.88;2.92;;;3.30;99.90;;;;;;4757503;30;20131;-73
2023/01/18 20:44:50;;;;;;;14.65;2.20;;;3.30;99.90;;;;;;4757385;30;20051;-73
2023/01/18 20:47:16;;;;;;;9.13;1.73;;;3.40;99.90;;;;;;4757112;30;20052;-73
2023/01/18 20:49:45;;;;;;;13.85;1.75;;;3.40;99.90;;;;;;4757234;30;20070;-73
2023/01/18 20:52:11;;;;;;;10.07;2.35;;;3.30;99.90;;;;;;4757296;30;20043;-73
2023/01/18 20:57:22;;;;;;;7.10;1.10;;;3.50;99.90;;;;;;4777698;24;20117;-73
2023/01/18 20:59:48;;;;;;;13.05;1.35;;;3.40;99.90;;;;;;4757120;30;20056;-73
2023/01/18 21:02:17;;;;;;;15.00;1.48;;;3.50;99.90;;;;;;4756023;30;20052;-73
2023/01/18 21:04:43;;;;;;;10.32;1.80;;;3.40;99.90;;;;;;4757098;30;20563;-73
2023/01/18 21:09:51;;;;;;;12.23;1.40;;;3.50;99.90;;;;;;4786209;24;20059;-73
2023/01/18 21:12:20;;;;;;;22.23;2.80;;;3.40;99.90;;;;;;4772984;30;20639;-73
2023/01/18 21:14:46;;;;;;;12.30;1.27;;;3.40;99.90;;;;;;4756939;30;20058;-73
2023/01/18 21:24:57;;;;;;;9.13;1.10;;;3.30;99.90;;;;;;1206800;24;20343;-73
2023/01/18 21:27:27;;;;;;;7.47;1.15;;;3.20;99.90;;;;;;4756925;30;20059;-72
2023/01/18 21:29:55;;;;;;;13.40;1.77;;;3.40;99.90;;;;;;4756607;30;20051;-73
2023/01/18 21:34:56;;;;;;;18.58;2.67;;;3.20;99.90;;;;;;4865676;24;20067;-73
2023/01/18 21:37:42;;;;;;;7.35;1.08;;;3.20;99.90;;;;;;4756688;30;20056;-73
2023/01/18 21:40:09;;;;;;;9.00;1.58;;;3.40;99.90;;;;;;4756469;30;20134;-73
2023/01/18 21:56:01;;;;;;;9.93;1.55;;;3.20;99.90;;;;;;4753075;30;20409;-73
2023/01/18 22:01:14;;;;;;;8.35;2.35;;;3.10;99.90;;;;;;4752631;30;20056;-73
2023/01/18 22:03:40;;;;;;;14.48;1.48;;;3.10;99.90;;;;;;4753162;30;20059;-73
2023/01/18 22:06:11;;;;;;;10.32;1.58;;;3.00;99.90;;;;;;4753407;30;20134;-73
2023/01/18 22:08:39;;;;;;;6.72;1.42;;;3.00;99.90;;;;;;4753139;30;20060;-73
2023/01/18 22:11:08;;;;;;;7.13;1.20;;;3.10;99.90;;;;;;4739029;30;20056;-73
2023/01/18 22:18:50;;;;;;;14.02;1.75;;;3.20;99.90;;;;;;5034899;24;20501;-73
2023/01/18 22:21:22;;;;;;;11.27;1.45;;;3.20;99.90;;;;;;4752629;30;20067;-73
2023/01/18 22:23:51;;;;;;;10.90;1.23;;;3.10;99.90;;;;;;4738026;30;20064;-73
2023/01/18 22:26:25;;;;;;;11.43;2.53;;;3.10;99.90;;;;;;4738059;30;20047;-72
2023/01/18 22:28:51;;;;;;;5.35;1.00;;;3.30;99.90;;;;;;4752918;30;20135;-73
2023/01/18 22:31:17;;;;;;;13.57;1.77;;;3.30;99.90;;;;;;4753763;30;20568;-73
2023/01/18 22:33:44;;;;;;;4.40;1.05;;;3.20;99.90;;;;;;4753670;30;20048;-73
2023/01/18 22:36:11;;;;;;;5.30;1.25;;;3.30;99.90;;;;;;4753035;30;20056;-73
2023/01/18 22:38:40;;;;;;;6.72;0.80;;;3.20;99.90;;;;;;4753774;30;20054;-73
2023/01/18 22:41:09;;;;;;;6.25;1.33;;;3.30;99.90;;;;;;4752718;30;20075;-73
2023/01/18 22:43:35;;;;;;;6.32;1.83;;;3.10;99.90;;;;;;4752460;30;20056;-73
2023/01/18 22:46:02;;;;;;;5.10;0.93;;;3.00;99.90;;;;;;4753556;30;20471;-73
2023/01/18 22:48:35;;;;;;;11.70;1.08;;;2.90;99.90;;;;;;4753617;30;20048;-73
2023/01/18 22:53:37;;;;;;;9.63;1.95;;;2.90;99.90;;;;;;4845672;24;20451;-73
2023/01/18 22:56:08;;;;;;;8.73;1.33;;;3.00;99.90;;;;;;4737625;30;20056;-73
2023/01/18 22:58:35;;;;;;;9.50;1.50;;;2.80;99.90;;;;;;4737773;30;20075;-73
2023/01/18 23:01:02;;;;;;;5.30;0.85;;;2.90;99.90;;;;;;4736375;30;20051;-73
2023/01/18 23:03:30;;;;;;;7.97;1.45;;;2.70;99.90;;;;;;4737415;30;20056;-73
2023/01/18 23:05:58;;;;;;;4.45;0.70;;;2.70;99.90;;;;;;4737649;30;20063;-73
2023/01/18 23:08:37;;;;;;;7.82;1.58;;;2.70;99.90;;;;;;4737554;30;20063;-73
2023/01/18 23:11:03;;;;;;;7.90;1.02;;;2.70;99.90;;;;;;4753276;30;20084;-73
2023/01/18 23:18:58;;;;;;;6.10;0.90;;;2.70;99.90;;;;;;4751932;30;20421;-73
2023/01/18 23:21:26;;;;;;;7.15;1.23;;;2.70;99.90;;;;;;4737214;30;20515;-73
2023/01/18 23:23:52;;;;;;;11.75;1.35;;;2.80;99.90;;;;;;4751708;30;20051;-73
2023/01/18 23:26:49;;;;;;;7.55;1.40;;;2.60;99.90;;;;;;5500397;24;20015;-73
2023/01/18 23:30:39;;;;;;;7.47;1.15;;;2.70;99.90;;;;;;4751822;30;20052;-73
2023/01/18 23:33:06;;;;;;;12.07;1.63;;;2.70;99.90;;;;;;4751751;30;20060;-73
2023/01/18 23:35:31;;;;;;;7.60;1.30;;;2.60;99.90;;;;;;4751696;30;20044;-73
2023/01/18 23:37:59;;;;;;;7.32;1.17;;;2.60;99.90;;;;;;4736797;30;20119;-73
2023/01/18 23:56:50;;;;;;;8.05;0.70;;;2.70;99.90;;;;;;4705168;24;20056;-73
2023/01/18 23:59:18;;;;;;;5.80;0.85;;;2.50;99.90;;;;;;4751410;30;20071;-73
